createdAt,value
2023-05-05T00:01:06.176Z,101051.72
2023-05-05T00:03:33.135Z,101045.03
2023-05-05T00:05:59.747Z,101047.28
2023-05-05T00:08:26.250Z,101040.38
2023-05-05T00:10:52.872Z,101033.91
2023-05-05T00:13:19.891Z,101039.63
2023-05-05T00:15:46.986Z,101031.72
2023-05-05T00:18:15.111Z,101028.06
2023-05-05T00:20:41.666Z,101029.06
2023-05-05T00:23:08.046Z,101026.59
2023-05-05T00:25:34.373Z,101022.56
2023-05-05T00:28:00.800Z,101024.34
2023-05-05T00:30:27.648Z,101022.28
2023-05-05T00:32:54.362Z,101015.97
2023-05-05T00:35:20.810Z,101017.53
2023-05-05T00:37:47.361Z,101008.97
2023-05-05T00:40:13.898Z,101007.34
2023-05-05T00:42:44.156Z,101009.38
2023-05-05T00:45:11.345Z,101008.38
2023-05-05T00:47:38.177Z,101002.09
2023-05-05T00:50:07.053Z,101006.34
2023-05-05T00:52:34.012Z,101004.13
2023-05-05T00:55:00.889Z,100997.03
2023-05-05T00:57:28.648Z,100997.03
2023-05-05T00:59:55.933Z,100993.00
2023-05-05T01:02:22.800Z,100997.00
2023-05-05T01:04:49.149Z,100991.50
2023-05-05T01:07:15.474Z,100983.34
2023-05-05T01:10:15.101Z,100978.41
2023-05-05T01:13:12.255Z,100969.00
2023-05-05T01:15:43.702Z,100976.03
2023-05-05T01:18:14.014Z,100968.25
2023-05-05T01:20:44.775Z,100974.09
2023-05-05T01:23:18.397Z,100974.41
2023-05-05T01:25:44.747Z,100971.09
2023-05-05T01:28:20.138Z,100984.00
2023-05-05T01:31:05.082Z,100977.69
2023-05-05T01:33:35.084Z,100984.78
2023-05-05T01:36:07.590Z,100980.44
2023-05-05T01:38:37.497Z,100977.34
2023-05-05T01:41:07.532Z,100978.13
2023-05-05T01:43:34.986Z,100978.28
2023-05-05T01:46:02.285Z,100978.28
2023-05-05T01:48:29.942Z,100982.28
2023-05-05T01:50:57.552Z,100972.13
2023-05-05T01:53:24.528Z,100962.78
2023-05-05T01:55:52.552Z,100959.72
2023-05-05T01:58:19.987Z,100954.44
2023-05-05T02:00:46.836Z,100956.88
2023-05-05T02:03:14.004Z,100958.97
2023-05-05T02:05:41.889Z,100962.84
2023-05-05T02:08:08.980Z,100959.03
2023-05-05T02:10:35.991Z,100957.22
2023-05-05T02:13:02.954Z,100957.41
2023-05-05T02:15:29.766Z,100960.06
2023-05-05T02:17:57.866Z,100960.22
2023-05-05T02:20:24.842Z,100963.84
2023-05-05T02:22:51.215Z,100965.88
2023-05-05T02:25:17.959Z,100956.31
2023-05-05T02:27:45.131Z,100968.63
2023-05-05T02:30:14.286Z,100972.25
2023-05-05T02:32:44.669Z,100967.22
2023-05-05T02:35:14.105Z,100960.09
2023-05-05T02:37:43.283Z,100963.88
2023-05-05T02:40:10.682Z,100969.53
2023-05-05T02:42:39.869Z,100961.81
2023-05-05T02:45:15.002Z,100963.28
2023-05-05T02:47:41.413Z,100974.25
2023-05-05T02:50:08.344Z,100981.41
2023-05-05T02:52:35.410Z,100987.59
2023-05-05T02:55:02.864Z,100974.25
2023-05-05T02:57:37.817Z,100970.88
2023-05-05T03:00:18.993Z,100970.88
2023-05-05T03:02:54.228Z,100981.84
2023-05-05T03:05:25.213Z,100978.22
2023-05-05T03:07:51.555Z,100971.13
2023-05-05T03:10:21.887Z,100971.75
2023-05-05T03:12:55.630Z,100968.13
2023-05-05T03:15:24.809Z,100966.31
2023-05-05T03:17:53.087Z,100968.97
2023-05-05T03:20:20.215Z,100971.59
2023-05-05T03:22:47.468Z,100967.75
2023-05-05T03:25:13.872Z,100976.28
2023-05-05T03:27:40.671Z,100978.94
2023-05-05T03:30:07.589Z,100978.13
2023-05-05T03:32:34.344Z,100981.56
2023-05-05T03:35:00.934Z,100983.19
2023-05-05T03:37:27.253Z,100987.63
2023-05-05T03:39:53.544Z,100981.91
2023-05-05T03:42:19.865Z,100982.28
2023-05-05T03:44:46.448Z,100983.66
2023-05-05T03:47:12.896Z,100991.94
2023-05-05T03:49:39.200Z,100989.66
2023-05-05T03:52:05.622Z,100995.50
2023-05-05T03:54:31.952Z,100993.66
2023-05-05T03:56:58.270Z,100993.66
2023-05-05T03:59:24.620Z,100981.47
2023-05-05T04:01:51.001Z,100986.75
2023-05-05T04:04:17.458Z,100977.41
2023-05-05T04:06:43.799Z,100972.50
2023-05-05T04:09:10.161Z,100976.13
2023-05-05T04:11:36.469Z,100968.44
2023-05-05T04:14:02.776Z,100980.59
2023-05-05T04:16:29.212Z,100975.31
2023-05-05T04:18:55.605Z,100973.31
2023-05-05T04:21:21.957Z,100976.38
2023-05-05T04:23:48.380Z,100975.06
2023-05-05T04:26:14.668Z,100989.31
2023-05-05T04:28:41.995Z,100988.31
2023-05-05T04:31:08.385Z,100981.22
2023-05-05T04:33:34.808Z,100985.47
2023-05-05T04:36:01.150Z,100992.31
2023-05-05T04:38:27.589Z,100987.75
2023-05-05T04:40:53.979Z,100998.06
2023-05-05T04:43:21.013Z,100982.53
2023-05-05T04:45:54.262Z,100991.09
2023-05-05T04:48:39.289Z,100997.72
2023-05-05T04:51:06.127Z,100999.69
2023-05-05T04:53:32.808Z,100999.91
2023-05-05T04:56:02.539Z,100999.69
2023-05-05T04:58:28.919Z,100995.63
2023-05-05T05:00:55.251Z,100997.06
2023-05-05T05:03:21.631Z,100996.09
2023-05-05T05:05:48.144Z,100995.09
2023-05-05T05:08:17.726Z,101012.34
2023-05-05T05:10:44.561Z,101018.84
2023-05-05T05:13:12.759Z,101025.91
2023-05-05T05:15:39.521Z,101015.03
2023-05-05T05:18:06.085Z,101028.09
2023-05-05T05:20:32.514Z,101028.97
2023-05-05T05:23:01.906Z,101028.13
2023-05-05T05:25:28.470Z,101029.91
2023-05-05T05:28:06.173Z,101042.81
2023-05-05T05:30:36.464Z,101040.44
2023-05-05T05:33:02.829Z,101054.97
2023-05-05T05:35:29.184Z,101051.97
2023-05-05T05:37:55.546Z,101056.34
2023-05-05T05:40:21.863Z,101068.84
2023-05-05T05:42:48.227Z,101064.63
2023-05-05T05:45:14.546Z,101081.44
2023-05-05T05:47:40.910Z,101079.56
2023-05-05T05:50:07.917Z,101078.88
2023-05-05T05:52:36.109Z,101073.25
2023-05-05T05:55:02.778Z,101081.41
2023-05-05T05:57:29.104Z,101081.25
2023-05-05T05:59:55.617Z,101085.69
2023-05-05T06:02:22.103Z,101088.28
2023-05-05T06:04:48.786Z,101086.78
2023-05-05T06:07:15.102Z,101088.97
2023-05-05T06:09:41.425Z,101087.50
2023-05-05T06:12:07.799Z,101093.44
2023-05-05T06:14:34.109Z,101093.31
2023-05-05T06:17:00.510Z,101091.91
2023-05-05T06:19:26.906Z,101097.44
2023-05-05T06:21:53.250Z,101098.84
2023-05-05T06:24:19.557Z,101105.88
2023-05-05T06:26:45.865Z,101107.94
2023-05-05T06:29:12.478Z,101103.53
2023-05-05T06:31:38.912Z,101115.13
2023-05-05T06:34:05.310Z,101112.31
2023-05-05T06:36:32.309Z,101118.66
2023-05-05T06:38:58.705Z,101116.47
2023-05-05T06:41:25.062Z,101122.28
2023-05-05T06:43:51.441Z,101114.44
2023-05-05T06:46:17.838Z,101125.31
2023-05-05T06:48:44.231Z,101123.56
2023-05-05T06:51:10.600Z,101126.91
2023-05-05T06:53:37.035Z,101137.28
2023-05-05T06:56:03.461Z,101127.19
2023-05-05T06:58:29.832Z,101116.41
2023-05-05T07:00:56.245Z,101120.53
2023-05-05T07:03:22.686Z,101121.97
2023-05-05T07:06:32.109Z,101115.47
2023-05-05T07:08:58.553Z,101116.13
2023-05-05T07:11:24.918Z,101118.97
2023-05-05T07:13:51.595Z,101122.22
2023-05-05T07:16:18.046Z,101117.94
2023-05-05T07:18:44.365Z,101112.66
2023-05-05T07:21:10.695Z,101121.84
2023-05-05T07:23:37.966Z,101122.25
2023-05-05T07:31:28.117Z,101135.88
2023-05-05T07:33:54.558Z,101136.66
2023-05-05T07:41:38.921Z,101148.88
2023-05-05T07:44:05.397Z,101147.22
2023-05-05T07:46:31.758Z,101145.19
2023-05-05T07:48:58.175Z,101144.38
2023-05-05T07:51:24.498Z,101144.78
2023-05-05T07:56:32.172Z,101154.53
2023-05-05T07:58:58.525Z,101160.63
2023-05-05T08:01:24.841Z,101159.78
2023-05-05T08:03:51.332Z,101157.50
2023-05-05T08:06:22.001Z,101156.28
2023-05-05T08:08:48.930Z,101161.78
2023-05-05T08:11:15.887Z,101158.69
2023-05-05T08:24:17.172Z,101180.22
2023-05-05T08:45:42.245Z,101189.72
2023-05-05T08:48:09.075Z,101187.25
2023-05-05T08:50:36.260Z,101183.84
2023-05-05T08:53:15.902Z,101185.66
2023-05-05T08:58:26.929Z,101184.13
2023-05-05T09:08:53.685Z,101178.59
2023-05-05T09:11:19.998Z,101171.97
2023-05-05T09:13:47.542Z,101176.06
2023-05-05T09:16:13.964Z,101178.63
2023-05-05T09:18:41.123Z,101182.59
2023-05-05T09:21:21.429Z,101173.44
2023-05-05T09:24:08.199Z,101184.78
2023-05-05T09:26:39.272Z,101181.53
2023-05-05T09:29:05.694Z,101180.75
2023-05-05T09:31:32.679Z,101176.72
2023-05-05T09:34:01.086Z,101179.69
2023-05-05T09:36:49.898Z,101175.88
2023-05-05T09:39:19.985Z,101176.06
2023-05-05T09:41:47.035Z,101174.59
2023-05-05T09:44:16.660Z,101178.88
2023-05-05T09:46:51.112Z,101172.59
2023-05-05T09:49:19.140Z,101175.03
2023-05-05T09:51:45.879Z,101169.06
2023-05-05T09:54:21.805Z,101168.03
2023-05-05T09:56:48.404Z,101156.72
2023-05-05T09:59:14.795Z,101161.00
2023-05-05T10:01:43.377Z,101157.78
2023-05-05T10:04:29.556Z,101155.88
2023-05-05T10:06:57.038Z,101154.78
2023-05-05T10:09:27.092Z,101157.53
2023-05-05T10:11:53.975Z,101155.91
2023-05-05T10:14:20.534Z,101163.25
2023-05-05T10:16:51.085Z,101168.53
2023-05-05T10:19:28.467Z,101163.97
2023-05-05T10:21:59.558Z,101167.97
2023-05-05T10:24:30.614Z,101165.22
2023-05-05T10:26:58.581Z,101167.97
2023-05-05T10:29:24.901Z,101168.78
2023-05-05T10:31:53.033Z,101170.66
2023-05-05T10:34:22.493Z,101168.72
2023-05-05T10:39:24.979Z,101159.94
2023-05-05T10:41:51.738Z,101158.75
2023-05-05T10:49:53.285Z,101144.00
2023-05-05T10:55:02.578Z,101143.72
2023-05-05T11:00:04.390Z,101133.81
2023-05-05T11:02:31.609Z,101129.41
2023-05-05T11:15:51.068Z,101125.28
2023-05-05T11:20:52.625Z,101131.84
2023-05-05T11:42:19.469Z,101100.50
2023-05-05T11:44:45.882Z,101092.56
2023-05-05T11:52:36.269Z,101079.97
2023-05-05T11:57:37.921Z,101065.78
2023-05-05T12:00:05.865Z,101072.56
2023-05-05T12:05:08.049Z,101060.19
2023-05-05T12:07:34.464Z,101075.53
2023-05-05T12:10:01.151Z,101064.94
2023-05-05T12:12:37.797Z,101064.72
2023-05-05T12:15:04.841Z,101065.19
2023-05-05T12:17:39.195Z,101065.97
2023-05-05T12:20:06.440Z,101061.06
2023-05-05T12:23:01.637Z,101061.13
2023-05-05T12:25:34.726Z,101061.56
2023-05-05T12:28:01.058Z,101064.78
2023-05-05T12:30:27.423Z,101060.94
2023-05-05T12:33:00.914Z,101053.31
2023-05-05T12:35:27.468Z,101053.41
2023-05-05T12:37:53.950Z,101046.53
2023-05-05T12:40:39.427Z,101052.75
2023-05-05T12:43:06.067Z,101056.88
2023-05-05T12:45:32.678Z,101056.00
2023-05-05T12:47:59.070Z,101052.91
2023-05-05T12:50:32.220Z,101040.66
2023-05-05T12:52:58.640Z,101048.09
2023-05-05T12:58:04.677Z,101050.19
2023-05-05T13:00:31.632Z,101042.97
2023-05-05T13:02:58.084Z,101047.78
2023-05-05T13:05:32.524Z,101038.50
2023-05-05T13:07:58.933Z,101034.69
2023-05-05T13:10:25.591Z,101035.84
2023-05-05T13:15:33.584Z,101038.72
2023-05-05T13:20:41.264Z,101034.91
2023-05-05T13:23:09.140Z,101032.88
2023-05-05T13:25:36.068Z,101035.81
2023-05-05T13:28:04.380Z,101033.66
2023-05-05T13:30:30.855Z,101028.88
2023-05-05T13:32:58.458Z,101023.25
2023-05-05T13:35:25.300Z,101023.09
2023-05-05T13:37:51.768Z,101027.97
2023-05-05T13:40:18.356Z,101021.09
2023-05-05T13:42:44.738Z,101027.06
2023-05-05T13:45:12.193Z,101021.78
2023-05-05T13:47:38.825Z,101029.63
2023-05-05T13:52:40.688Z,101043.84
2023-05-05T13:55:07.727Z,101060.69
2023-05-05T13:57:34.297Z,101090.38
2023-05-05T14:00:00.636Z,101138.50
2023-05-05T14:02:27.072Z,101155.44
2023-05-05T14:04:53.425Z,101155.66
2023-05-05T14:07:23.114Z,101164.19
2023-05-05T14:09:49.857Z,101155.97
2023-05-05T14:12:44.294Z,101180.09
2023-05-05T14:16:02.310Z,101180.84
2023-05-05T14:22:04.151Z,101172.09
2023-05-05T14:31:01.568Z,101244.78
2023-05-05T14:33:28.221Z,101209.28
2023-05-05T14:35:55.498Z,101210.97
2023-05-05T14:38:21.995Z,101207.78
2023-05-05T14:40:48.452Z,101204.81
2023-05-05T14:43:14.900Z,101210.34
2023-05-05T14:45:41.444Z,101207.84
2023-05-05T14:48:07.907Z,101215.53
2023-05-05T14:50:34.230Z,101204.16
2023-05-05T14:53:00.846Z,101199.41
2023-05-05T14:55:27.535Z,101209.41
2023-05-05T14:57:53.965Z,101200.59
2023-05-05T15:00:20.579Z,101208.19
2023-05-05T15:02:48.157Z,101203.81
2023-05-05T15:05:15.172Z,101212.53
2023-05-05T15:07:41.623Z,101184.56
2023-05-05T15:10:08.408Z,101189.09
2023-05-05T15:12:35.134Z,101194.97
2023-05-05T15:15:01.856Z,101203.88
2023-05-05T15:17:28.664Z,101211.69
2023-05-05T15:19:55.238Z,101206.53
2023-05-05T15:22:21.697Z,101198.03
2023-05-05T15:24:48.217Z,101197.06
2023-05-05T15:27:14.689Z,101208.44
2023-05-05T15:29:41.109Z,101197.97
2023-05-05T15:32:07.595Z,101204.75
2023-05-05T15:34:34.143Z,101189.31
2023-05-05T15:37:00.631Z,101216.56
2023-05-05T15:39:27.076Z,101220.47
2023-05-05T15:41:53.452Z,101222.38
2023-05-05T15:44:19.938Z,101211.22
2023-05-05T15:46:47.239Z,101208.84
2023-05-05T15:49:15.657Z,101201.41
2023-05-05T15:51:45.199Z,101192.88
2023-05-05T15:54:13.878Z,101203.66
2023-05-05T15:56:42.938Z,101208.56
2023-05-05T15:59:11.567Z,101211.28
2023-05-05T16:01:38.089Z,101206.47
2023-05-05T16:04:04.926Z,101216.34
2023-05-05T16:06:31.768Z,101200.44
2023-05-05T16:08:58.692Z,101196.91
2023-05-05T16:11:26.160Z,101178.06
2023-05-05T16:13:52.949Z,101178.34
2023-05-05T16:16:19.428Z,101176.72
2023-05-05T16:18:46.073Z,101166.03
2023-05-05T16:21:12.685Z,101155.75
2023-05-05T16:23:39.125Z,101166.41
2023-05-05T16:26:05.668Z,101169.06
2023-05-05T16:28:34.252Z,101164.59
2023-05-05T16:31:02.183Z,101172.69
2023-05-05T16:33:29.169Z,101173.56
2023-05-05T16:35:55.956Z,101158.69
2023-05-05T16:38:22.709Z,101161.81
2023-05-05T16:40:49.146Z,101160.56
2023-05-05T16:43:15.869Z,101157.81
2023-05-05T16:45:43.334Z,101166.03
2023-05-05T16:48:11.397Z,101148.00
2023-05-05T16:50:40.214Z,101164.16
2023-05-05T16:53:06.682Z,101139.06
2023-05-05T16:55:33.166Z,101131.34
2023-05-05T16:58:06.103Z,101152.38
2023-05-05T17:00:32.663Z,101156.88
2023-05-05T17:03:01.454Z,101146.94
2023-05-05T17:05:28.294Z,101120.03
2023-05-05T17:07:54.958Z,101141.69
2023-05-05T17:10:21.354Z,101159.78
2023-05-05T17:12:47.909Z,101140.47
2023-05-05T17:15:14.376Z,101148.25
2023-05-05T17:17:42.356Z,101150.34
2023-05-05T17:20:10.175Z,101153.75
2023-05-05T17:22:37.337Z,101162.16
2023-05-05T17:25:05.022Z,101144.78
2023-05-05T17:27:31.924Z,101150.19
2023-05-05T17:29:58.666Z,101138.91
2023-05-05T17:32:25.144Z,101152.75
2023-05-05T17:34:54.412Z,101136.69
2023-05-05T17:37:23.681Z,101147.28
2023-05-05T17:45:08.041Z,101120.81
2023-05-05T17:47:38.440Z,101139.28
2023-05-05T17:50:13.427Z,101153.63
2023-05-05T17:52:41.132Z,101176.59
2023-05-05T17:55:08.270Z,101172.72
2023-05-05T18:03:04.731Z,101170.81
2023-05-05T18:05:35.229Z,101178.44
2023-05-05T18:08:12.300Z,101171.03
2023-05-05T18:10:39.115Z,101164.75
2023-05-05T18:16:47.195Z,101191.44
2023-05-05T18:19:13.845Z,101202.53
2023-05-05T18:21:40.386Z,101212.63
2023-05-05T18:24:19.199Z,101183.78
2023-05-05T18:26:52.456Z,101188.00
2023-05-05T18:29:21.522Z,101208.91
2023-05-05T18:31:51.489Z,101222.13
2023-05-05T18:34:19.114Z,101222.22
2023-05-05T18:36:46.556Z,101222.16
2023-05-05T18:39:14.545Z,101227.66
2023-05-05T18:42:03.409Z,101202.00
2023-05-05T18:44:29.967Z,101208.38
2023-05-05T18:46:56.517Z,101242.53
2023-05-05T18:49:23.315Z,101235.66
2023-05-05T18:51:49.755Z,101233.81
2023-05-05T18:54:16.183Z,101236.44
2023-05-05T18:56:42.657Z,101241.97
2023-05-05T18:59:09.243Z,101230.19
2023-05-05T19:01:35.763Z,101234.19
2023-05-05T19:04:02.299Z,101231.63
2023-05-05T19:06:28.894Z,101230.94
2023-05-05T19:08:56.668Z,101225.31
2023-05-05T19:11:23.950Z,101232.38
2023-05-05T19:13:50.601Z,101242.59
2023-05-05T19:16:17.841Z,101233.78
2023-05-05T19:18:44.577Z,101226.00
2023-05-05T19:21:11.039Z,101249.44
2023-05-05T19:23:38.342Z,101255.22
2023-05-05T19:26:06.106Z,101240.97
2023-05-05T19:28:33.220Z,101247.69
2023-05-05T19:30:59.760Z,101237.88
2023-05-05T19:33:26.222Z,101248.09
2023-05-05T19:35:52.920Z,101207.69
2023-05-05T19:38:19.517Z,101222.13
2023-05-05T19:40:46.105Z,101241.31
2023-05-05T19:43:12.872Z,101203.66
2023-05-05T19:45:45.500Z,101264.50
2023-05-05T19:48:21.902Z,101225.03
2023-05-05T19:50:48.537Z,101222.44
2023-05-05T19:53:15.428Z,101241.13
2023-05-05T19:55:41.907Z,101219.19
2023-05-05T19:58:08.576Z,101222.75
2023-05-05T20:00:35.211Z,101227.88
2023-05-05T20:03:02.145Z,101235.06
2023-05-05T20:05:28.665Z,101230.50
2023-05-05T20:07:55.143Z,101238.38
2023-05-05T20:10:23.505Z,101241.16
2023-05-05T20:12:50.625Z,101233.97
2023-05-05T20:15:20.505Z,101230.22
2023-05-05T20:25:46.913Z,101187.97
2023-05-05T20:28:54.892Z,101202.09
2023-05-05T20:31:22.403Z,101228.13
2023-05-05T20:33:49.756Z,101225.19
2023-05-05T20:36:17.809Z,101212.72
2023-05-05T20:38:47.289Z,101233.69
2023-05-05T20:41:14.259Z,101244.84
2023-05-05T20:43:45.402Z,101233.06
2023-05-05T20:48:08.944Z,101216.50
2023-05-05T20:50:17.287Z,101257.00
2023-05-05T20:52:47.447Z,101215.84
2023-05-05T20:55:16.709Z,101228.47
2023-05-05T20:57:43.801Z,101242.38
2023-05-05T21:00:16.791Z,101248.81
2023-05-05T21:02:48.914Z,101204.53
2023-05-05T21:05:17.665Z,101203.72
2023-05-05T21:07:45.404Z,101248.13
2023-05-05T21:10:12.937Z,101197.66
2023-05-05T21:12:42.786Z,101251.59
2023-05-05T21:15:17.029Z,101233.88
2023-05-05T21:17:44.537Z,101256.34
2023-05-05T21:20:15.936Z,101241.94
2023-05-05T21:22:46.376Z,101228.81
2023-05-05T21:25:22.098Z,101220.75
2023-05-05T21:27:52.791Z,101244.69
2023-05-05T21:30:20.365Z,101248.47
2023-05-05T21:32:48.538Z,101245.53
2023-05-05T21:35:15.732Z,101218.97
2023-05-05T21:37:45.406Z,101233.22
2023-05-05T21:40:14.205Z,101200.28
2023-05-05T21:42:48.125Z,101225.69
2023-05-05T21:45:14.891Z,101235.34
2023-05-05T21:47:42.214Z,101205.50
2023-05-05T21:50:15.326Z,101216.50
2023-05-05T21:52:54.396Z,101223.50
2023-05-05T21:55:23.872Z,101216.78
2023-05-05T21:57:51.112Z,101222.53
2023-05-05T22:00:23.438Z,101207.63
2023-05-05T22:02:56.022Z,101198.91
2023-05-05T22:05:25.420Z,101223.34
2023-05-05T22:07:59.899Z,101249.41
2023-05-05T22:10:30.290Z,101213.81
2023-05-05T22:12:58.364Z,101198.03
2023-05-05T22:15:30.035Z,101211.34
2023-05-05T22:18:00.207Z,101219.53
2023-05-05T22:20:27.571Z,101250.66
2023-05-05T22:23:03.365Z,101234.09
2023-05-05T22:25:33.017Z,101256.56
2023-05-05T22:28:02.942Z,101248.53
2023-05-05T22:30:30.460Z,101242.47
2023-05-05T22:33:03.380Z,101235.88
2023-05-05T22:35:36.033Z,101234.75
2023-05-05T22:38:06.141Z,101215.50
2023-05-05T22:40:34.120Z,101204.69
2023-05-05T22:43:04.059Z,101254.25
2023-05-05T22:45:30.938Z,101252.28
2023-05-05T22:47:57.953Z,101250.16
2023-05-05T22:50:24.527Z,101239.47
2023-05-05T22:52:50.954Z,101253.91
2023-05-05T22:55:17.573Z,101238.94
2023-05-05T23:08:21.032Z,101228.78
2023-05-05T23:10:47.536Z,101212.78
2023-05-05T23:13:14.068Z,101249.03
2023-05-05T23:20:57.568Z,101254.41
2023-05-05T23:23:24.237Z,101243.59
2023-05-05T23:25:51.444Z,101243.06
2023-05-05T23:28:18.677Z,101250.47
2023-05-05T23:33:26.828Z,101202.34
2023-05-05T23:35:53.523Z,101234.06
2023-05-05T23:38:20.139Z,101246.47
2023-05-05T23:40:46.651Z,101232.13
2023-05-05T23:43:13.210Z,101263.09
2023-05-05T23:45:40.460Z,101252.94
2023-05-05T23:50:48.694Z,101254.84
2023-05-05T23:53:16.123Z,101244.84
